createdAt,value
2019-03-04T00:02:20.570Z,4.67
2019-03-04T00:04:49.699Z,5.80
2019-03-04T00:07:18.771Z,7.83
2019-03-04T00:09:52.784Z,8.20
2019-03-04T00:12:21.904Z,6.92
2019-03-04T00:14:50.990Z,8.07
2019-03-04T00:17:20.180Z,5.30
2019-03-04T00:19:52.280Z,7.53
2019-03-04T00:22:21.428Z,4.77
2019-03-04T00:24:50.891Z,8.00
2019-03-04T00:27:20.338Z,6.97
2019-03-04T00:29:49.498Z,9.43
2019-03-04T00:32:18.606Z,8.50
2019-03-04T00:34:47.714Z,7.80
2019-03-04T00:37:16.889Z,7.30
2019-03-04T00:39:45.940Z,5.17
2019-03-04T00:42:15.075Z,7.33
2019-03-04T00:44:44.240Z,8.10
2019-03-04T00:47:13.337Z,6.93
2019-03-04T00:49:42.515Z,6.60
2019-03-04T00:52:11.766Z,6.70
2019-03-04T00:54:40.814Z,6.30
2019-03-04T00:57:09.958Z,4.63
2019-03-04T00:59:39.070Z,6.03
2019-03-04T01:02:08.229Z,5.80
2019-03-04T01:04:37.293Z,7.63
2019-03-04T01:07:06.525Z,4.20
2019-03-04T01:09:35.546Z,6.33
2019-03-04T01:12:04.680Z,5.53
2019-03-04T01:14:36.779Z,5.60
2019-03-04T01:17:05.856Z,7.87
2019-03-04T01:19:37.929Z,6.80
2019-03-04T01:22:06.988Z,9.70
2019-03-04T01:24:36.098Z,7.30
2019-03-04T01:27:05.169Z,5.77
2019-03-04T01:29:34.258Z,3.70
2019-03-04T01:32:03.335Z,6.70
2019-03-04T01:34:32.413Z,4.60
2019-03-04T01:37:01.512Z,5.00
2019-03-04T01:39:30.621Z,6.73
2019-03-04T01:42:00.246Z,5.53
2019-03-04T01:44:29.312Z,4.47
2019-03-04T01:47:01.277Z,6.40
2019-03-04T01:49:30.283Z,7.37
2019-03-04T01:51:59.431Z,6.57
2019-03-04T01:54:28.693Z,6.53
2019-03-04T01:56:57.754Z,5.33
2019-03-04T01:59:30.108Z,5.20
2019-03-04T02:01:59.241Z,5.37
2019-03-04T02:04:28.414Z,6.40
2019-03-04T02:06:57.541Z,6.87
2019-03-04T02:09:26.658Z,4.53
2019-03-04T02:11:55.785Z,4.07
2019-03-04T02:14:24.854Z,7.07
2019-03-04T02:16:55.199Z,5.57
2019-03-04T02:19:24.328Z,4.40
2019-03-04T02:21:53.459Z,3.73
2019-03-04T02:24:24.749Z,7.03
2019-03-04T02:26:55.382Z,7.37
2019-03-04T02:29:24.532Z,7.63
2019-03-04T02:31:53.673Z,4.70
2019-03-04T02:34:22.802Z,4.60
2019-03-04T02:36:52.767Z,5.73
2019-03-04T02:39:21.984Z,4.53
2019-03-04T02:41:51.079Z,4.03
2019-03-04T02:44:20.975Z,7.07
2019-03-04T02:46:50.163Z,5.27
2019-03-04T02:49:19.234Z,5.83
2019-03-04T02:51:48.432Z,4.60
2019-03-04T02:54:17.560Z,5.93
2019-03-04T02:56:49.370Z,7.10
2019-03-04T02:59:18.423Z,3.70
2019-03-04T03:01:47.490Z,2.53
2019-03-04T03:04:16.665Z,4.27
2019-03-04T03:06:48.424Z,2.40
2019-03-04T03:09:17.548Z,3.40
2019-03-04T03:11:46.745Z,2.60
2019-03-04T03:14:15.812Z,4.20
2019-03-04T03:16:44.875Z,2.50
2019-03-04T03:19:13.968Z,4.90
2019-03-04T03:21:43.114Z,3.53
2019-03-04T03:24:12.288Z,3.57
2019-03-04T03:26:41.400Z,2.73
2019-03-04T03:29:10.455Z,2.80
2019-03-04T03:31:39.641Z,2.87
2019-03-04T03:34:08.739Z,2.37
2019-03-04T03:36:37.909Z,2.00
2019-03-04T03:39:07.097Z,2.43
2019-03-04T03:41:36.306Z,3.57
2019-03-04T03:44:05.548Z,2.57
2019-03-04T03:46:34.556Z,2.20
2019-03-04T03:49:03.735Z,1.60
2019-03-04T03:51:32.778Z,2.50
2019-03-04T03:54:01.880Z,2.93
2019-03-04T03:56:31.050Z,1.73
2019-03-04T03:59:00.154Z,2.53
2019-03-04T04:01:29.587Z,3.13
2019-03-04T04:04:01.000Z,2.33
2019-03-04T04:06:30.119Z,3.00
2019-03-04T04:08:59.204Z,2.03
2019-03-04T04:11:28.334Z,1.83
2019-03-04T04:13:57.461Z,3.30
2019-03-04T04:16:26.517Z,1.93
2019-03-04T04:18:55.656Z,1.37
2019-03-04T04:21:24.753Z,2.20
2019-03-04T04:23:53.863Z,1.73
2019-03-04T04:26:23.103Z,4.77
2019-03-04T04:29:11.605Z,2.63
2019-03-04T04:31:40.768Z,3.97
2019-03-04T04:34:09.841Z,3.37
2019-03-04T04:36:41.751Z,2.13
2019-03-04T04:39:13.519Z,3.33
2019-03-04T04:41:43.439Z,3.00
2019-03-04T04:44:12.580Z,4.33
2019-03-04T04:46:55.502Z,2.63
2019-03-04T04:49:26.452Z,2.33
2019-03-04T04:51:55.447Z,3.07
2019-03-04T04:54:24.632Z,2.03
2019-03-04T04:56:53.670Z,1.97
2019-03-04T04:59:25.406Z,2.40
2019-03-04T05:01:57.203Z,2.20
2019-03-04T05:04:26.340Z,3.60
2019-03-04T05:06:55.401Z,2.67
2019-03-04T05:09:24.485Z,3.60
2019-03-04T05:11:53.579Z,3.07
2019-03-04T05:14:22.670Z,3.67
2019-03-04T05:16:51.798Z,2.90
2019-03-04T05:19:20.953Z,2.63
2019-03-04T05:21:50.156Z,2.70
2019-03-04T05:24:19.312Z,2.03
2019-03-04T05:26:48.349Z,1.93
2019-03-04T05:29:17.552Z,2.00
2019-03-04T05:31:46.628Z,3.20
2019-03-04T05:34:15.681Z,2.43
2019-03-04T05:36:44.717Z,3.40
2019-03-04T05:39:13.858Z,3.70
2019-03-04T05:41:42.829Z,2.10
2019-03-04T05:44:11.966Z,3.63
2019-03-04T05:46:40.938Z,2.23
2019-03-04T05:49:10.012Z,5.10
2019-03-04T05:51:39.086Z,6.03
2019-03-04T05:54:08.196Z,21.70
2019-03-04T05:56:37.326Z,20.33
2019-03-04T05:59:06.361Z,4.23
2019-03-04T06:01:37.492Z,14.90
2019-03-04T06:04:08.375Z,43.43
2019-03-04T06:06:59.706Z,6.80
2019-03-04T06:09:28.833Z,5.27
2019-03-04T06:11:57.977Z,3.03
2019-03-04T06:14:26.994Z,3.67
2019-03-04T06:16:56.102Z,6.00
2019-03-04T06:19:25.228Z,7.10
2019-03-04T06:21:54.269Z,8.63
2019-03-04T06:24:23.305Z,8.30
2019-03-04T06:26:52.362Z,6.17
2019-03-04T06:29:21.444Z,9.37
2019-03-04T06:31:50.529Z,5.00
2019-03-04T06:34:19.623Z,7.33
2019-03-04T06:36:48.784Z,7.97
2019-03-04T06:39:17.840Z,5.80
2019-03-04T06:41:46.758Z,5.33
2019-03-04T06:44:15.645Z,4.07
2019-03-04T06:46:44.570Z,3.37
2019-03-04T06:49:13.481Z,4.13
2019-03-04T06:51:49.754Z,2.73
2019-03-04T06:55:19.087Z,4.70
2019-03-04T06:57:50.616Z,5.17
2019-03-04T07:00:56.544Z,6.87
2019-03-04T07:03:30.783Z,6.10
2019-03-04T07:05:59.904Z,4.03
2019-03-04T07:09:11.574Z,6.73
2019-03-04T07:11:42.067Z,3.97
2019-03-04T07:14:11.060Z,5.70
2019-03-04T07:16:40.105Z,4.57
2019-03-04T07:19:13.746Z,4.97
2019-03-04T07:21:42.749Z,1.87
2019-03-04T07:24:11.845Z,2.37
2019-03-04T07:26:43.515Z,2.90
2019-03-04T07:29:14.930Z,5.43
2019-03-04T07:31:41.640Z,2.33
2019-03-04T07:34:10.644Z,4.73
2019-03-04T07:36:39.734Z,8.53
2019-03-04T07:39:16.044Z,8.00
2019-03-04T07:41:49.433Z,4.90
2019-03-04T07:44:18.657Z,5.47
2019-03-04T07:46:47.779Z,6.37
2019-03-04T07:49:16.874Z,9.73
2019-03-04T07:51:46.045Z,6.30
2019-03-04T07:54:15.641Z,5.17
2019-03-04T07:56:44.751Z,6.80
2019-03-04T07:59:13.909Z,7.13
2019-03-04T08:01:49.114Z,7.07
2019-03-04T08:04:18.241Z,7.85
2019-03-04T08:06:47.381Z,4.25
2019-03-04T08:10:04.377Z,10.37
2019-03-04T08:12:56.204Z,5.83
2019-03-04T08:15:26.641Z,7.60
2019-03-04T08:17:58.748Z,6.10
2019-03-04T08:20:28.174Z,6.83
2019-03-04T08:22:57.363Z,5.00
2019-03-04T08:25:26.466Z,6.73
2019-03-04T08:27:58.971Z,5.97
2019-03-04T08:30:28.149Z,6.50
2019-03-04T08:33:00.206Z,8.17
2019-03-04T08:35:29.502Z,5.87
2019-03-04T08:37:58.702Z,7.53
2019-03-04T08:40:27.912Z,7.43
2019-03-04T08:42:57.174Z,4.60
2019-03-04T08:45:26.560Z,6.70
2019-03-04T08:47:55.688Z,12.37
2019-03-04T08:50:24.829Z,6.00
2019-03-04T08:52:54.017Z,5.07
2019-03-04T08:55:24.010Z,7.53
2019-03-04T08:57:53.103Z,4.17
2019-03-04T09:00:24.571Z,5.03
2019-03-04T09:02:53.603Z,5.83
2019-03-04T09:05:22.705Z,5.37
2019-03-04T09:07:51.868Z,5.53
2019-03-04T09:10:23.389Z,4.20
2019-03-04T09:12:54.985Z,4.63
2019-03-04T09:15:24.255Z,4.33
2019-03-04T09:17:53.401Z,2.47
2019-03-04T09:20:23.070Z,2.27
2019-03-04T09:22:52.228Z,2.20
2019-03-04T09:25:35.938Z,1.53
2019-03-04T09:28:05.895Z,2.60
2019-03-04T09:30:34.981Z,2.87
2019-03-04T09:33:04.136Z,2.37
2019-03-04T09:35:33.155Z,1.53
2019-03-04T09:38:05.087Z,1.57
2019-03-04T09:40:34.242Z,2.70
2019-03-04T09:43:03.381Z,2.07
2019-03-04T09:45:38.965Z,2.03
2019-03-04T09:48:01.505Z,1.93
2019-03-04T09:50:30.608Z,2.63
2019-03-04T09:53:02.667Z,1.00
2019-03-04T09:55:34.551Z,1.20
2019-03-04T09:58:00.979Z,3.20
2019-03-04T10:01:16.840Z,1.33
2019-03-04T10:03:54.815Z,2.90
2019-03-04T10:07:23.584Z,2.63
2019-03-04T10:10:30.029Z,2.00
2019-03-04T10:13:55.942Z,2.00
2019-03-04T10:16:54.181Z,1.80
2019-03-04T10:20:04.281Z,2.10
2019-03-04T10:22:56.269Z,2.10
2019-03-04T10:26:22.865Z,2.30
2019-03-04T10:28:54.855Z,2.80
2019-03-04T10:31:59.513Z,3.33
2019-03-04T10:35:27.472Z,3.50
2019-03-04T10:38:44.311Z,3.13
2019-03-04T10:42:08.186Z,4.57
2019-03-04T10:45:19.662Z,2.50
2019-03-04T10:47:53.693Z,3.00
2019-03-04T10:50:44.781Z,2.40
2019-03-04T10:53:24.432Z,5.80
2019-03-04T10:55:42.255Z,4.10
2019-03-04T10:58:08.233Z,3.13
2019-03-04T11:00:37.898Z,7.87
2019-03-04T11:03:09.891Z,4.43
2019-03-04T11:05:39.073Z,4.80
2019-03-04T11:08:08.286Z,9.07
2019-03-04T11:10:37.438Z,7.03
2019-03-04T11:13:06.536Z,5.27
2019-03-04T11:15:38.547Z,6.47
2019-03-04T11:18:07.693Z,7.13
2019-03-04T11:20:37.171Z,5.67
2019-03-04T11:23:06.400Z,6.87
2019-03-04T11:25:35.635Z,7.10
2019-03-04T11:28:04.884Z,4.87
2019-03-04T11:30:36.922Z,7.33
2019-03-04T11:33:06.123Z,7.33
2019-03-04T11:35:35.195Z,8.23
2019-03-04T11:38:07.234Z,6.13
2019-03-04T11:40:38.721Z,5.77
2019-03-04T11:43:07.862Z,8.08
2019-03-04T11:45:37.443Z,7.50
2019-03-04T11:48:06.777Z,5.33
2019-03-04T11:50:35.897Z,8.83
2019-03-04T11:53:07.452Z,8.00
2019-03-04T11:55:36.693Z,7.57
2019-03-04T11:58:06.274Z,6.60
2019-03-04T12:00:59.242Z,10.77
2019-03-04T12:03:25.268Z,4.60
2019-03-04T12:05:54.638Z,8.23
2019-03-04T12:08:23.804Z,9.87
2019-03-04T12:10:53.240Z,6.03
2019-03-04T12:13:24.427Z,8.80
2019-03-04T12:15:54.090Z,5.87
2019-03-04T12:18:26.083Z,9.20
2019-03-04T12:20:57.303Z,5.83
2019-03-04T12:23:24.013Z,7.63
2019-03-04T12:25:53.470Z,4.80
2019-03-04T12:28:23.683Z,11.33
2019-03-04T12:30:58.395Z,9.17
2019-03-04T12:33:32.480Z,10.33
2019-03-04T12:36:00.594Z,9.63
2019-03-04T12:38:30.082Z,11.53
2019-03-04T12:41:01.998Z,9.80
2019-03-04T12:43:29.068Z,9.70
2019-03-04T12:46:01.482Z,13.83
2019-03-04T12:48:34.248Z,10.67
2019-03-04T12:51:04.504Z,13.30
2019-03-04T12:53:37.259Z,10.07
2019-03-04T12:56:05.198Z,9.73
2019-03-04T12:58:32.271Z,7.43
2019-03-04T13:01:01.403Z,11.27
2019-03-04T13:03:30.494Z,15.30
2019-03-04T13:05:59.682Z,9.93
2019-03-04T13:08:28.809Z,7.90
2019-03-04T13:11:00.877Z,12.73
2019-03-04T13:13:29.972Z,10.30
2019-03-04T13:16:01.917Z,9.03
2019-03-04T13:18:30.983Z,10.13
2019-03-04T13:21:00.103Z,9.37
2019-03-04T13:23:29.202Z,11.63
2019-03-04T13:25:58.345Z,9.43
2019-03-04T13:28:30.431Z,10.63
2019-03-04T13:30:59.564Z,8.63
2019-03-04T13:33:28.667Z,10.97
2019-03-04T13:35:57.767Z,11.87
2019-03-04T13:38:26.886Z,14.27
2019-03-04T13:40:56.061Z,9.17
2019-03-04T13:43:28.075Z,11.87
2019-03-04T13:45:57.996Z,6.23
2019-03-04T13:48:28.638Z,10.35
2019-03-04T13:50:57.802Z,8.80
2019-03-04T13:53:26.986Z,8.03
2019-03-04T13:55:56.120Z,12.93
2019-03-04T13:58:25.429Z,5.80
2019-03-04T14:00:54.619Z,7.37
2019-03-04T14:03:23.668Z,10.77
2019-03-04T14:05:52.801Z,10.13
2019-03-04T14:08:21.999Z,9.03
2019-03-04T14:10:54.180Z,7.33
2019-03-04T14:13:23.294Z,4.63
2019-03-04T14:15:52.414Z,6.77
2019-03-04T14:18:21.544Z,7.80
2019-03-04T14:20:50.734Z,7.30
2019-03-04T14:23:21.475Z,5.67
2019-03-04T14:25:51.454Z,8.60
2019-03-04T14:28:28.279Z,6.77
2019-03-04T14:30:55.487Z,11.23
2019-03-04T14:33:24.583Z,8.13
2019-03-04T14:35:56.676Z,5.20
2019-03-04T14:38:25.718Z,6.10
2019-03-04T14:40:54.786Z,11.03
2019-03-04T14:43:23.844Z,7.70
2019-03-04T14:45:54.394Z,7.50
2019-03-04T14:48:22.223Z,7.53
2019-03-04T14:50:51.262Z,7.63
2019-03-04T14:53:20.391Z,5.07
2019-03-04T14:55:49.491Z,12.33
2019-03-04T14:58:20.031Z,9.43
2019-03-04T15:00:49.432Z,6.17
2019-03-04T15:03:23.060Z,5.67
2019-03-04T15:05:47.847Z,8.33
2019-03-04T15:08:16.921Z,5.27
2019-03-04T15:10:46.100Z,8.20
2019-03-04T15:13:15.158Z,8.30
2019-03-04T15:15:44.291Z,7.80
2019-03-04T15:18:13.608Z,7.60
2019-03-04T15:20:42.683Z,7.63
2019-03-04T15:23:11.777Z,7.20
2019-03-04T15:25:44.182Z,8.17
2019-03-04T15:28:15.376Z,8.57
2019-03-04T15:30:45.501Z,9.57
2019-03-04T15:33:18.529Z,7.13
2019-03-04T15:35:44.271Z,8.00
2019-03-04T15:38:13.452Z,6.23
2019-03-04T15:40:42.655Z,9.10
2019-03-04T15:43:11.892Z,8.00
2019-03-04T15:45:43.456Z,10.10
2019-03-04T15:48:12.644Z,9.03
2019-03-04T15:50:41.868Z,11.17
2019-03-04T15:53:10.951Z,8.50
2019-03-04T15:55:39.975Z,9.53
2019-03-04T15:58:09.183Z,8.10
2019-03-04T16:00:38.249Z,9.80
2019-03-04T16:03:07.387Z,11.33
2019-03-04T16:05:36.437Z,12.47
2019-03-04T16:08:07.849Z,6.83
2019-03-04T16:10:35.030Z,13.63
2019-03-04T16:13:04.201Z,9.87
2019-03-04T16:15:38.199Z,10.40
2019-03-04T16:18:07.430Z,9.97
2019-03-04T16:20:36.579Z,9.30
2019-03-04T16:23:05.790Z,6.67
2019-03-04T16:25:34.843Z,7.00
2019-03-04T16:28:09.970Z,9.40
2019-03-04T16:30:39.223Z,11.67
2019-03-04T16:33:08.389Z,8.87
2019-03-04T16:35:37.564Z,9.93
2019-03-04T16:38:06.657Z,8.37
2019-03-04T16:40:35.780Z,7.70
2019-03-04T16:43:04.863Z,12.87
2019-03-04T16:45:33.978Z,7.83
2019-03-04T16:48:03.122Z,6.40
2019-03-04T16:50:32.576Z,10.10
2019-03-04T16:53:02.096Z,7.83
2019-03-04T16:55:31.192Z,9.25
2019-03-04T16:58:00.394Z,12.37
2019-03-04T17:00:29.432Z,10.70
2019-03-04T17:02:58.566Z,10.07
2019-03-04T17:05:27.620Z,4.60
2019-03-04T17:07:56.748Z,6.07
2019-03-04T17:10:25.838Z,10.93
2019-03-04T17:12:54.984Z,7.00
2019-03-04T17:15:24.096Z,9.30
2019-03-04T17:17:53.234Z,10.37
2019-03-04T17:20:25.428Z,11.17
2019-03-04T17:22:54.569Z,7.50
2019-03-04T17:25:23.624Z,6.63
2019-03-04T17:27:52.739Z,7.47
2019-03-04T17:30:21.873Z,6.70
2019-03-04T17:32:50.903Z,9.13
2019-03-04T17:35:20.051Z,7.63
2019-03-04T17:37:49.261Z,9.53
2019-03-04T17:40:18.355Z,8.93
2019-03-04T17:42:47.488Z,6.60
2019-03-04T17:45:18.151Z,8.30
2019-03-04T17:47:50.320Z,7.97
2019-03-04T17:50:28.109Z,7.43
2019-03-04T17:52:57.240Z,7.03
2019-03-04T17:55:26.401Z,6.10
2019-03-04T17:57:55.509Z,6.40
2019-03-04T18:00:24.614Z,7.57
2019-03-04T18:02:57.069Z,13.40
2019-03-04T18:05:26.230Z,8.13
2019-03-04T18:07:58.120Z,7.83
2019-03-04T18:10:27.336Z,9.67
2019-03-04T18:12:56.571Z,8.40
2019-03-04T18:15:26.604Z,9.67
2019-03-04T18:17:55.765Z,13.87
2019-03-04T18:20:34.093Z,10.23
2019-03-04T18:22:54.090Z,11.00
2019-03-04T18:25:36.559Z,10.97
2019-03-04T18:28:09.987Z,11.47
2019-03-04T18:30:46.009Z,8.73
2019-03-04T18:33:54.713Z,10.03
2019-03-04T18:36:42.741Z,11.27
2019-03-04T18:39:37.914Z,8.47
2019-03-04T18:42:34.004Z,11.37
2019-03-04T18:45:39.605Z,6.30
2019-03-04T18:48:54.462Z,10.07
2019-03-04T18:51:23.648Z,11.20
2019-03-04T18:53:54.586Z,12.93
2019-03-04T18:56:23.851Z,10.53
2019-03-04T18:58:52.895Z,8.33
2019-03-04T19:01:22.059Z,11.07
2019-03-04T19:03:51.291Z,8.87
2019-03-04T19:06:20.451Z,7.30
2019-03-04T19:08:49.661Z,7.87
2019-03-04T19:11:18.758Z,11.20
2019-03-04T19:13:51.133Z,9.10
2019-03-04T19:16:21.864Z,10.40
2019-03-04T19:18:51.063Z,9.60
2019-03-04T19:21:20.274Z,14.43
2019-03-04T19:23:51.607Z,8.80
2019-03-04T19:26:20.707Z,11.10
2019-03-04T19:28:49.914Z,8.10
2019-03-04T19:31:19.052Z,10.20
2019-03-04T19:33:48.158Z,13.43
2019-03-04T19:36:17.284Z,10.57
2019-03-04T19:38:46.425Z,10.40
2019-03-04T19:41:15.610Z,10.50
2019-03-04T19:43:44.759Z,7.97
2019-03-04T19:46:14.025Z,11.73
2019-03-04T19:48:43.150Z,11.27
2019-03-04T19:51:13.727Z,9.33
2019-03-04T19:53:41.706Z,6.83
2019-03-04T19:56:10.828Z,7.10
2019-03-04T19:58:39.926Z,7.23
2019-03-04T20:01:09.065Z,11.73
2019-03-04T20:03:38.118Z,9.97
2019-03-04T20:06:07.277Z,9.97
2019-03-04T20:08:36.424Z,5.97
2019-03-04T20:11:05.581Z,7.97
2019-03-04T20:13:34.771Z,7.00
2019-03-04T20:16:04.899Z,7.50
2019-03-04T20:18:34.037Z,7.70
2019-03-04T20:21:03.227Z,5.20
2019-03-04T20:23:32.422Z,7.47
2019-03-04T20:26:01.565Z,5.77
2019-03-04T20:28:30.689Z,4.87
2019-03-04T20:30:59.871Z,3.73
2019-03-04T20:33:29.099Z,2.70
2019-03-04T20:35:58.300Z,7.90
2019-03-04T20:38:33.662Z,4.97
2019-03-04T20:41:02.871Z,4.47
2019-03-04T20:43:32.435Z,6.43
2019-03-04T20:46:01.639Z,4.40
2019-03-04T20:48:30.645Z,4.63
2019-03-04T20:51:00.132Z,6.03
2019-03-04T20:53:31.695Z,6.93
2019-03-04T20:56:00.950Z,6.87
2019-03-04T20:58:30.285Z,3.40
2019-03-04T21:01:02.833Z,5.97
2019-03-04T21:03:35.106Z,5.67
2019-03-04T21:06:01.316Z,8.30
2019-03-04T21:08:30.677Z,7.33
2019-03-04T21:10:59.832Z,9.57
2019-03-04T21:13:51.829Z,6.10
2019-03-04T21:16:23.806Z,10.30
2019-03-04T21:18:53.053Z,7.00
2019-03-04T21:21:22.316Z,7.67
2019-03-04T21:23:51.562Z,8.30
2019-03-04T21:26:26.564Z,6.50
2019-03-04T21:29:30.094Z,5.67
2019-03-04T21:32:06.586Z,9.80
2019-03-04T21:35:12.285Z,7.23
2019-03-04T21:37:44.199Z,6.20
2019-03-04T21:40:20.000Z,9.57
2019-03-04T21:43:02.296Z,8.20
2019-03-04T21:46:01.304Z,7.30
2019-03-04T21:48:41.373Z,7.70
2019-03-04T21:51:25.436Z,13.17
2019-03-04T21:53:54.694Z,10.80
2019-03-04T21:56:47.082Z,11.03
2019-03-04T21:59:16.250Z,10.60
2019-03-04T22:01:55.984Z,9.13
2019-03-04T22:04:25.109Z,11.68
2019-03-04T22:06:54.375Z,13.67
2019-03-04T22:09:23.562Z,7.63
2019-03-04T22:11:52.642Z,11.17
2019-03-04T22:14:21.707Z,9.43
2019-03-04T22:16:50.944Z,9.13
2019-03-04T22:19:20.012Z,11.13
2019-03-04T22:21:49.354Z,9.93
2019-03-04T22:24:18.416Z,8.33
2019-03-04T22:26:47.666Z,9.73
2019-03-04T22:29:16.635Z,8.63
2019-03-04T22:31:46.110Z,9.13
2019-03-04T22:34:15.318Z,10.83
2019-03-04T22:36:44.549Z,9.83
2019-03-04T22:39:13.736Z,10.00
2019-03-04T22:41:42.946Z,9.67
2019-03-04T22:44:12.089Z,12.47
2019-03-04T22:46:41.342Z,9.67
2019-03-04T22:49:10.432Z,12.10
2019-03-04T22:51:39.752Z,11.03
2019-03-04T22:54:08.769Z,10.10
2019-03-04T22:56:37.967Z,16.30
2019-03-04T22:59:07.069Z,9.27
2019-03-04T23:01:45.621Z,13.17
2019-03-04T23:04:35.646Z,9.50
2019-03-04T23:07:28.480Z,10.83
2019-03-04T23:10:15.531Z,11.37
2019-03-04T23:12:55.813Z,9.93
2019-03-04T23:15:25.292Z,9.13
2019-03-04T23:17:54.533Z,13.07
2019-03-04T23:20:23.808Z,12.50
2019-03-04T23:22:52.942Z,14.77
2019-03-04T23:25:21.878Z,11.47
2019-03-04T23:28:33.734Z,14.83
2019-03-04T23:31:02.767Z,8.93
2019-03-04T23:33:31.655Z,12.03
2019-03-04T23:36:01.257Z,12.70
2019-03-04T23:38:30.378Z,13.77
2019-03-04T23:40:59.613Z,13.73
2019-03-04T23:43:28.775Z,17.97
2019-03-04T23:45:57.891Z,12.33
2019-03-04T23:48:26.869Z,13.33
2019-03-04T23:50:56.308Z,14.30
2019-03-04T23:53:25.441Z,10.30
2019-03-04T23:55:54.517Z,9.77
2019-03-04T23:58:23.633Z,13.03
